sensor_id;sensor_type;location;lat;lon;timestamp;pressure;altitude;pressure_sealevel;temperature;humidity
70314;BME280;57725;47.526;18.986;2023-02-17T00:01:18;100720.09;;;3.46;95.95
70314;BME280;57725;47.526;18.986;2023-02-17T00:03:45;100720.94;;;3.45;95.63
70314;BME280;57725;47.526;18.986;2023-02-17T00:06:12;100727.84;;;3.46;95.78
70314;BME280;57725;47.526;18.986;2023-02-17T00:08:41;100715.78;;;3.43;95.84
70314;BME280;57725;47.526;18.986;2023-02-17T00:11:06;100720.91;;;3.46;95.87
70314;BME280;57725;47.526;18.986;2023-02-17T00:13:34;100718.38;;;3.43;95.73
70314;BME280;57725;47.526;18.986;2023-02-17T00:16:05;100715.78;;;3.43;95.65
70314;BME280;57725;47.526;18.986;2023-02-17T00:18:30;100718.38;;;3.45;95.59
70314;BME280;57725;47.526;18.986;2023-02-17T00:20:58;100706.28;;;3.42;95.95
70314;BME280;57725;47.526;18.986;2023-02-17T00:23:23;100720.09;;;3.44;95.89
70314;BME280;57725;47.526;18.986;2023-02-17T00:25:49;100714.06;;;3.44;96.24
70314;BME280;57725;47.526;18.986;2023-02-17T00:28:17;100710.59;;;3.40;95.99
70314;BME280;57725;47.526;18.986;2023-02-17T00:30:42;100704.56;;;3.43;95.76
70314;BME280;57725;47.526;18.986;2023-02-17T00:33:07;100706.28;;;3.42;95.94
70314;BME280;57725;47.526;18.986;2023-02-17T00:35:38;100713.19;;;3.42;95.73
70314;BME280;57725;47.526;18.986;2023-02-17T00:38:03;100710.59;;;3.42;96.32
70314;BME280;57725;47.526;18.986;2023-02-17T00:40:28;100707.16;;;3.41;96.16
70314;BME280;57725;47.526;18.986;2023-02-17T00:42:59;100710.59;;;3.42;95.61
70314;BME280;57725;47.526;18.986;2023-02-17T00:45:24;100711.47;;;3.39;96.14
70314;BME280;57725;47.526;18.986;2023-02-17T00:47:52;100715.78;;;3.40;96.29
70314;BME280;57725;47.526;18.986;2023-02-17T00:50:17;100712.31;;;3.40;96.06
70314;BME280;57725;47.526;18.986;2023-02-17T00:52:42;100718.34;;;3.40;95.80
70314;BME280;57725;47.526;18.986;2023-02-17T00:55:10;100718.34;;;3.40;95.87
70314;BME280;57725;47.526;18.986;2023-02-17T00:57:35;100714.91;;;3.40;95.95
70314;BME280;57725;47.526;18.986;2023-02-17T01:00:02;100712.31;;;3.40;96.21
70314;BME280;57725;47.526;18.986;2023-02-17T01:02:27;100706.28;;;3.41;96.41
70314;BME280;57725;47.526;18.986;2023-02-17T01:04:53;100704.56;;;3.38;95.85
70314;BME280;57725;47.526;18.986;2023-02-17T01:07:21;100703.72;;;3.39;96.28
70314;BME280;57725;47.526;18.986;2023-02-17T01:09:48;100706.28;;;3.38;96.46
70314;BME280;57725;47.526;18.986;2023-02-17T01:12:14;100708.00;;;3.37;96.55
70314;BME280;57725;47.526;18.986;2023-02-17T01:14:39;100699.38;;;3.35;95.80
70314;BME280;57725;47.526;18.986;2023-02-17T01:17:04;100713.19;;;3.39;96.53
70314;BME280;57725;47.526;18.986;2023-02-17T01:19:30;100708.00;;;3.37;95.77
70314;BME280;57725;47.526;18.986;2023-02-17T01:21:58;100705.44;;;3.37;96.17
70314;BME280;57725;47.526;18.986;2023-02-17T01:24:27;100698.53;;;3.36;96.41
70314;BME280;57725;47.526;18.986;2023-02-17T01:26:55;100701.13;;;3.33;96.22
70314;BME280;57725;47.526;18.986;2023-02-17T01:29:20;100697.66;;;3.36;96.06
70314;BME280;57725;47.526;18.986;2023-02-17T01:31:46;100695.94;;;3.36;96.25
70314;BME280;57725;47.526;18.986;2023-02-17T01:34:11;100694.22;;;3.35;96.00
70314;BME280;57725;47.526;18.986;2023-02-17T01:36:39;100691.66;;;3.34;96.29
70314;BME280;57725;47.526;18.986;2023-02-17T01:39:04;100686.50;;;3.34;96.27
70314;BME280;57725;47.526;18.986;2023-02-17T01:41:30;100677.88;;;3.32;96.66
70314;BME280;57725;47.526;18.986;2023-02-17T01:46:31;100686.50;;;3.34;96.33
70314;BME280;57725;47.526;18.986;2023-02-17T01:48:57;100681.31;;;3.34;96.30
70314;BME280;57725;47.526;18.986;2023-02-17T01:51:26;100677.00;;;3.33;96.16
70314;BME280;57725;47.526;18.986;2023-02-17T01:53:58;100671.84;;;3.33;96.04
70314;BME280;57725;47.526;18.986;2023-02-17T01:56:27;100676.16;;;3.32;96.29
70314;BME280;57725;47.526;18.986;2023-02-17T01:58:59;100676.16;;;3.31;96.06
70314;BME280;57725;47.526;18.986;2023-02-17T02:01:26;100677.88;;;3.32;96.48
70314;BME280;57725;47.526;18.986;2023-02-17T02:03:52;100670.13;;;3.32;96.61
70314;BME280;57725;47.526;18.986;2023-02-17T02:06:23;100671.84;;;3.31;96.32
70314;BME280;57725;47.526;18.986;2023-02-17T02:09:03;100668.41;;;3.31;96.51
70314;BME280;57725;47.526;18.986;2023-02-17T02:11:29;100658.06;;;3.27;96.37
70314;BME280;57725;47.526;18.986;2023-02-17T02:13:55;100657.19;;;3.30;96.22
70314;BME280;57725;47.526;18.986;2023-02-17T02:16:29;100660.63;;;3.29;96.26
70314;BME280;57725;47.526;18.986;2023-02-17T02:25:05;100655.47;;;3.29;96.15
70314;BME280;57725;47.526;18.986;2023-02-17T02:40:45;100646.00;;;3.26;96.49
70314;BME280;57725;47.526;18.986;2023-02-17T02:43:18;100644.25;;;3.24;96.77
70314;BME280;57725;47.526;18.986;2023-02-17T02:45:46;100648.56;;;3.25;96.35
70314;BME280;57725;47.526;18.986;2023-02-17T02:48:14;100645.13;;;3.26;96.44
70314;BME280;57725;47.526;18.986;2023-02-17T02:58:24;100651.16;;;3.25;96.55
70314;BME280;57725;47.526;18.986;2023-02-17T03:00:58;100642.53;;;3.24;96.86
70314;BME280;57725;47.526;18.986;2023-02-17T03:03:40;100648.56;;;3.23;96.33
70314;BME280;57725;47.526;18.986;2023-02-17T03:06:24;100645.97;;;3.23;96.58
70314;BME280;57725;47.526;18.986;2023-02-17T03:08:55;100638.22;;;3.23;96.19
70314;BME280;57725;47.526;18.986;2023-02-17T03:11:26;100645.16;;;3.23;96.99
70314;BME280;57725;47.526;18.986;2023-02-17T03:14:08;100650.31;;;3.23;96.39
70314;BME280;57725;47.526;18.986;2023-02-17T03:16:38;100662.38;;;3.22;96.50
70314;BME280;57725;47.526;18.986;2023-02-17T03:19:04;100668.41;;;3.23;96.57
70314;BME280;57725;47.526;18.986;2023-02-17T03:21:50;100672.69;;;3.24;96.75
70314;BME280;57725;47.526;18.986;2023-02-17T03:24:18;100667.56;;;3.22;96.59
70314;BME280;57725;47.526;18.986;2023-02-17T03:26:44;100664.09;;;3.22;97.01
70314;BME280;57725;47.526;18.986;2023-02-17T03:29:09;100667.56;;;3.22;96.47
70314;BME280;57725;47.526;18.986;2023-02-17T03:31:35;100653.75;;;3.22;96.88
70314;BME280;57725;47.526;18.986;2023-02-17T03:34:01;100664.97;;;3.21;96.94
70314;BME280;57725;47.526;18.986;2023-02-17T03:36:26;100668.41;;;3.21;96.70
70314;BME280;57725;47.526;18.986;2023-02-17T03:38:54;100663.25;;;3.21;96.96
70314;BME280;57725;47.526;18.986;2023-02-17T03:41:22;100671.84;;;3.22;97.17
70314;BME280;57725;47.526;18.986;2023-02-17T03:43:53;100670.13;;;3.21;96.58
70314;BME280;57725;47.526;18.986;2023-02-17T03:46:19;100671.84;;;3.20;96.80
70314;BME280;57725;47.526;18.986;2023-02-17T03:48:44;100672.72;;;3.21;96.79
70314;BME280;57725;47.526;18.986;2023-02-17T03:51:16;100671.84;;;3.20;96.90
70314;BME280;57725;47.526;18.986;2023-02-17T03:53:42;100667.53;;;3.19;96.65
70314;BME280;57725;47.526;18.986;2023-02-17T03:56:10;100662.38;;;3.18;96.41
70314;BME280;57725;47.526;18.986;2023-02-17T03:58:37;100652.03;;;3.16;96.74
70314;BME280;57725;47.526;18.986;2023-02-17T04:01:04;100654.63;;;3.19;97.01
70314;BME280;57725;47.526;18.986;2023-02-17T04:03:30;100654.63;;;3.19;96.90
70314;BME280;57725;47.526;18.986;2023-02-17T04:05:56;100651.19;;;3.19;96.98
70314;BME280;57725;47.526;18.986;2023-02-17T04:08:21;100655.47;;;3.18;96.80
70314;BME280;57725;47.526;18.986;2023-02-17T04:10:53;100658.94;;;3.19;96.85
70314;BME280;57725;47.526;18.986;2023-02-17T04:13:22;100664.09;;;3.19;96.66
70314;BME280;57725;47.526;18.986;2023-02-17T04:15:47;100654.63;;;3.16;97.14
70314;BME280;57725;47.526;18.986;2023-02-17T04:18:13;100658.06;;;3.18;96.99
70314;BME280;57725;47.526;18.986;2023-02-17T04:20:39;100654.63;;;3.19;96.75
70314;BME280;57725;47.526;18.986;2023-02-17T04:23:04;100653.75;;;3.17;96.88
70314;BME280;57725;47.526;18.986;2023-02-17T04:25:33;100644.28;;;3.18;96.76
70314;BME280;57725;47.526;18.986;2023-02-17T04:27:58;100639.13;;;3.16;97.18
70314;BME280;57725;47.526;18.986;2023-02-17T04:30:24;100645.16;;;3.18;96.87
70314;BME280;57725;47.526;18.986;2023-02-17T04:32:49;100634.81;;;3.17;97.05
70314;BME280;57725;47.526;18.986;2023-02-17T04:35:14;100640.84;;;3.17;96.90
70314;BME280;57725;47.526;18.986;2023-02-17T04:37:42;100644.28;;;3.18;96.80
70314;BME280;57725;47.526;18.986;2023-02-17T04:40:08;100651.16;;;3.17;96.81
70314;BME280;57725;47.526;18.986;2023-02-17T04:42:35;100655.47;;;3.18;97.04
70314;BME280;57725;47.526;18.986;2023-02-17T04:45:01;100637.41;;;3.08;97.08
70314;BME280;57725;47.526;18.986;2023-02-17T04:47:26;100652.88;;;3.17;96.92
70314;BME280;57725;47.526;18.986;2023-02-17T04:49:52;100655.47;;;3.17;97.19
70314;BME280;57725;47.526;18.986;2023-02-17T04:52:18;100650.31;;;3.15;97.23
70314;BME280;57725;47.526;18.986;2023-02-17T04:54:43;100652.03;;;3.16;97.07
70314;BME280;57725;47.526;18.986;2023-02-17T04:57:11;100651.16;;;3.14;96.74
70314;BME280;57725;47.526;18.986;2023-02-17T04:59:42;100658.06;;;3.15;96.82
70314;BME280;57725;47.526;18.986;2023-02-17T05:02:07;100658.91;;;3.16;96.99
70314;BME280;57725;47.526;18.986;2023-02-17T05:04:33;100659.78;;;3.16;97.45
70314;BME280;57725;47.526;18.986;2023-02-17T05:07:01;100654.63;;;3.16;96.98
70314;BME280;57725;47.526;18.986;2023-02-17T05:09:28;100656.34;;;3.16;97.19
70314;BME280;57725;47.526;18.986;2023-02-17T05:11:54;100661.50;;;3.16;96.78
70314;BME280;57725;47.526;18.986;2023-02-17T05:14:22;100656.34;;;3.16;96.93
70314;BME280;57725;47.526;18.986;2023-02-17T05:16:47;100653.75;;;3.14;96.74
70314;BME280;57725;47.526;18.986;2023-02-17T05:19:15;100651.16;;;3.16;96.89
70314;BME280;57725;47.526;18.986;2023-02-17T05:21:40;100644.28;;;3.13;96.84
70314;BME280;57725;47.526;18.986;2023-02-17T05:24:06;100647.72;;;3.15;96.97
70314;BME280;57725;47.526;18.986;2023-02-17T05:26:33;100646.88;;;3.16;96.61
70314;BME280;57725;47.526;18.986;2023-02-17T05:28:59;100646.84;;;3.15;96.76
70314;BME280;57725;47.526;18.986;2023-02-17T05:31:26;100646.84;;;3.15;97.24
70314;BME280;57725;47.526;18.986;2023-02-17T05:33:55;100651.16;;;3.14;96.78
70314;BME280;57725;47.526;18.986;2023-02-17T05:36:20;100651.16;;;3.16;97.13
70314;BME280;57725;47.526;18.986;2023-02-17T05:38:48;100647.72;;;3.14;96.84
70314;BME280;57725;47.526;18.986;2023-02-17T05:41:16;100644.28;;;3.13;96.90
70314;BME280;57725;47.526;18.986;2023-02-17T05:43:42;100645.13;;;3.15;97.08
70314;BME280;57725;47.526;18.986;2023-02-17T05:46:07;100652.03;;;3.13;96.80
70314;BME280;57725;47.526;18.986;2023-02-17T05:48:35;100652.03;;;3.15;97.12
70314;BME280;57725;47.526;18.986;2023-02-17T05:51:01;100653.75;;;3.13;96.86
70314;BME280;57725;47.526;18.986;2023-02-17T05:53:26;100652.88;;;3.15;96.73
70314;BME280;57725;47.526;18.986;2023-02-17T05:55:54;100655.47;;;3.15;96.67
70314;BME280;57725;47.526;18.986;2023-02-17T05:58:19;100663.22;;;3.15;96.90
70314;BME280;57725;47.526;18.986;2023-02-17T06:00:45;100652.03;;;3.15;96.69
70314;BME280;57725;47.526;18.986;2023-02-17T06:03:13;100650.31;;;3.15;96.98
70314;BME280;57725;47.526;18.986;2023-02-17T06:05:39;100646.84;;;3.13;97.05
70314;BME280;57725;47.526;18.986;2023-02-17T06:08:05;100648.56;;;3.13;97.00
70314;BME280;57725;47.526;18.986;2023-02-17T06:10:31;100649.44;;;3.15;96.85
70314;BME280;57725;47.526;18.986;2023-02-17T06:12:56;100651.16;;;3.14;97.13
70314;BME280;57725;47.526;18.986;2023-02-17T06:15:22;100651.16;;;3.14;96.89
70314;BME280;57725;47.526;18.986;2023-02-17T06:17:47;100661.50;;;3.13;96.75
70314;BME280;57725;47.526;18.986;2023-02-17T06:20:13;100657.19;;;3.12;96.92
70314;BME280;57725;47.526;18.986;2023-02-17T06:22:41;100666.66;;;3.16;97.12
70314;BME280;57725;47.526;18.986;2023-02-17T06:25:07;100674.41;;;3.14;97.06
70314;BME280;57725;47.526;18.986;2023-02-17T06:27:33;100677.00;;;3.14;96.90
70314;BME280;57725;47.526;18.986;2023-02-17T06:30:01;100676.13;;;3.15;97.03
70314;BME280;57725;47.526;18.986;2023-02-17T06:32:29;100679.59;;;3.16;97.07
70314;BME280;57725;47.526;18.986;2023-02-17T06:34:56;100677.84;;;3.12;96.94
70314;BME280;57725;47.526;18.986;2023-02-17T06:37:31;100671.84;;;3.14;96.91
70314;BME280;57725;47.526;18.986;2023-02-17T06:40:02;100674.44;;;3.11;97.26
70314;BME280;57725;47.526;18.986;2023-02-17T06:42:27;100677.00;;;3.14;97.32
70314;BME280;57725;47.526;18.986;2023-02-17T06:44:58;100679.59;;;3.13;97.08
70314;BME280;57725;47.526;18.986;2023-02-17T06:47:25;100684.75;;;3.14;97.18
70314;BME280;57725;47.526;18.986;2023-02-17T06:49:53;100686.47;;;3.15;97.16
70314;BME280;57725;47.526;18.986;2023-02-17T06:52:21;100681.31;;;3.14;96.99
70314;BME280;57725;47.526;18.986;2023-02-17T06:54:46;100682.16;;;3.14;96.67
70314;BME280;57725;47.526;18.986;2023-02-17T06:57:11;100677.00;;;3.13;97.28
70314;BME280;57725;47.526;18.986;2023-02-17T06:59:39;100680.44;;;3.15;97.42
70314;BME280;57725;47.526;18.986;2023-02-17T07:02:12;100681.31;;;3.14;97.11
70314;BME280;57725;47.526;18.986;2023-02-17T07:04:38;100679.59;;;3.14;96.91
70314;BME280;57725;47.526;18.986;2023-02-17T07:07:07;100671.84;;;3.14;97.16
70314;BME280;57725;47.526;18.986;2023-02-17T07:09:32;100675.28;;;3.15;97.04
70314;BME280;57725;47.526;18.986;2023-02-17T07:11:58;100669.25;;;3.14;97.55
70314;BME280;57725;47.526;18.986;2023-02-17T07:14:24;100683.91;;;3.15;97.65
70314;BME280;57725;47.526;18.986;2023-02-17T07:16:50;100681.31;;;3.15;97.40
70314;BME280;57725;47.526;18.986;2023-02-17T07:19:18;100677.00;;;3.16;97.29
70314;BME280;57725;47.526;18.986;2023-02-17T07:21:45;100677.00;;;3.16;97.46
70314;BME280;57725;47.526;18.986;2023-02-17T07:24:11;100682.16;;;3.16;97.34
70314;BME280;57725;47.526;18.986;2023-02-17T07:26:37;100680.44;;;3.15;97.24
70314;BME280;57725;47.526;18.986;2023-02-17T07:29:04;100671.84;;;3.16;97.65
70314;BME280;57725;47.526;18.986;2023-02-17T07:31:33;100663.22;;;3.17;97.54
70314;BME280;57725;47.526;18.986;2023-02-17T07:34:00;100664.09;;;3.16;97.55
70314;BME280;57725;47.526;18.986;2023-02-17T07:36:25;100668.41;;;3.17;97.28
70314;BME280;57725;47.526;18.986;2023-02-17T07:38:53;100665.81;;;3.17;97.89
70314;BME280;57725;47.526;18.986;2023-02-17T07:41:21;100667.53;;;3.16;97.27
70314;BME280;57725;47.526;18.986;2023-02-17T07:43:54;100659.78;;;3.16;97.59
70314;BME280;57725;47.526;18.986;2023-02-17T07:46:22;100658.91;;;3.16;97.58
70314;BME280;57725;47.526;18.986;2023-02-17T07:48:48;100654.63;;;3.16;97.56
70314;BME280;57725;47.526;18.986;2023-02-17T07:51:23;100653.75;;;3.17;97.86
70314;BME280;57725;47.526;18.986;2023-02-17T07:53:54;100643.41;;;3.14;97.55
70314;BME280;57725;47.526;18.986;2023-02-17T07:56:20;100639.97;;;3.15;97.65
70314;BME280;57725;47.526;18.986;2023-02-17T07:58:49;100641.69;;;3.18;97.86
70314;BME280;57725;47.526;18.986;2023-02-17T08:01:17;100639.13;;;3.18;97.51
70314;BME280;57725;47.526;18.986;2023-02-17T08:03:46;100646.88;;;3.19;98.14
70314;BME280;57725;47.526;18.986;2023-02-17T08:06:31;100643.41;;;3.19;97.84
70314;BME280;57725;47.526;18.986;2023-02-17T08:08:57;100642.56;;;3.18;97.96
70314;BME280;57725;47.526;18.986;2023-02-17T08:11:41;100637.41;;;3.20;98.23
70314;BME280;57725;47.526;18.986;2023-02-17T08:14:28;100647.72;;;3.20;97.86
70314;BME280;57725;47.526;18.986;2023-02-17T08:16:55;100646.00;;;3.20;98.19
70314;BME280;57725;47.526;18.986;2023-02-17T08:19:20;100653.75;;;3.20;97.84
70314;BME280;57725;47.526;18.986;2023-02-17T08:21:50;100649.47;;;3.21;97.99
70314;BME280;57725;47.526;18.986;2023-02-17T08:24:16;100658.94;;;3.22;97.88
70314;BME280;57725;47.526;18.986;2023-02-17T08:26:44;100666.66;;;3.23;98.23
70314;BME280;57725;47.526;18.986;2023-02-17T08:29:13;100659.78;;;3.19;98.39
70314;BME280;57725;47.526;18.986;2023-02-17T08:31:40;100664.06;;;3.23;98.20
70314;BME280;57725;47.526;18.986;2023-02-17T08:34:09;100677.84;;;3.24;98.26
70314;BME280;57725;47.526;18.986;2023-02-17T08:36:36;100677.00;;;3.25;98.13
70314;BME280;57725;47.526;18.986;2023-02-17T08:39:05;100676.13;;;3.24;98.21
70314;BME280;57725;47.526;18.986;2023-02-17T08:41:34;100672.69;;;3.25;98.54
70314;BME280;57725;47.526;18.986;2023-02-17T08:44:03;100668.38;;;3.26;98.22
70314;BME280;57725;47.526;18.986;2023-02-17T08:46:30;100662.34;;;3.27;97.96
70314;BME280;57725;47.526;18.986;2023-02-17T08:48:57;100665.81;;;3.27;98.23
70314;BME280;57725;47.526;18.986;2023-02-17T08:51:23;100667.53;;;3.28;98.19
70314;BME280;57725;47.526;18.986;2023-02-17T08:53:51;100668.41;;;3.29;98.05
70314;BME280;57725;47.526;18.986;2023-02-17T08:56:19;100658.06;;;3.29;97.98
70314;BME280;57725;47.526;18.986;2023-02-17T08:58:44;100660.63;;;3.27;98.32
70314;BME280;57725;47.526;18.986;2023-02-17T09:01:09;100674.44;;;3.31;98.40
70314;BME280;57725;47.526;18.986;2023-02-17T09:03:36;100670.13;;;3.30;98.33
70314;BME280;57725;47.526;18.986;2023-02-17T09:06:07;100671.84;;;3.33;98.00
70314;BME280;57725;47.526;18.986;2023-02-17T09:08:32;100662.38;;;3.30;98.57
70314;BME280;57725;47.526;18.986;2023-02-17T09:11:03;100667.53;;;3.33;98.67
70314;BME280;57725;47.526;18.986;2023-02-17T09:13:29;100669.22;;;3.36;98.21
70314;BME280;57725;47.526;18.986;2023-02-17T09:15:57;100672.69;;;3.36;98.60
70314;BME280;57725;47.526;18.986;2023-02-17T09:18:23;100663.19;;;3.35;98.28
70314;BME280;57725;47.526;18.986;2023-02-17T09:20:49;100661.47;;;3.37;98.12
70314;BME280;57725;47.526;18.986;2023-02-17T09:23:17;100656.31;;;3.39;98.32
70314;BME280;57725;47.526;18.986;2023-02-17T09:25:46;100660.63;;;3.40;98.45
70314;BME280;57725;47.526;18.986;2023-02-17T09:28:14;100652.88;;;3.41;98.31
70314;BME280;57725;47.526;18.986;2023-02-17T09:30:40;100653.75;;;3.42;97.87
70314;BME280;57725;47.526;18.986;2023-02-17T09:33:06;100659.78;;;3.44;98.40
70314;BME280;57725;47.526;18.986;2023-02-17T09:35:32;100657.19;;;3.45;97.93
70314;BME280;57725;47.526;18.986;2023-02-17T09:37:57;100665.78;;;3.47;98.49
70314;BME280;57725;47.526;18.986;2023-02-17T09:40:40;100666.63;;;3.48;98.37
70314;BME280;57725;47.526;18.986;2023-02-17T09:43:14;100659.75;;;3.48;98.36
70314;BME280;57725;47.526;18.986;2023-02-17T09:45:41;100652.84;;;3.49;98.46
70314;BME280;57725;47.526;18.986;2023-02-17T09:48:10;100651.13;;;3.51;97.97
70314;BME280;57725;47.526;18.986;2023-02-17T09:50:45;100642.50;;;3.52;97.92
70314;BME280;57725;47.526;18.986;2023-02-17T09:55:48;100641.66;;;3.54;98.21
70314;BME280;57725;47.526;18.986;2023-02-17T09:58:35;100645.97;;;3.57;98.17
70314;BME280;57725;47.526;18.986;2023-02-17T10:01:06;100646.81;;;3.57;97.95
70314;BME280;57725;47.526;18.986;2023-02-17T10:03:39;100636.47;;;3.60;98.06
70314;BME280;57725;47.526;18.986;2023-02-17T10:09:27;100627.84;;;3.60;98.12
70314;BME280;57725;47.526;18.986;2023-02-17T10:12:07;100628.69;;;3.65;98.00
70314;BME280;57725;47.526;18.986;2023-02-17T10:15:00;100624.38;;;3.67;97.63
70314;BME280;57725;47.526;18.986;2023-02-17T10:20:13;100597.66;;;3.68;97.49
70314;BME280;57725;47.526;18.986;2023-02-17T10:22:44;100592.47;;;3.71;97.69
70314;BME280;57725;47.526;18.986;2023-02-17T10:25:19;100595.91;;;3.73;97.34
70314;BME280;57725;47.526;18.986;2023-02-17T10:27:53;100595.03;;;3.74;97.59
70314;BME280;57725;47.526;18.986;2023-02-17T10:33:17;100584.69;;;3.79;97.18
70314;BME280;57725;47.526;18.986;2023-02-17T10:35:52;100574.34;;;3.80;96.94
70314;BME280;57725;47.526;18.986;2023-02-17T10:41:09;100571.72;;;3.82;97.16
70314;BME280;57725;47.526;18.986;2023-02-17T10:43:44;100571.72;;;3.85;97.18
70314;BME280;57725;47.526;18.986;2023-02-17T10:46:11;100575.16;;;3.87;97.02
70314;BME280;57725;47.526;18.986;2023-02-17T10:51:12;100572.56;;;3.88;96.68
70314;BME280;57725;47.526;18.986;2023-02-17T10:53:39;100564.81;;;3.88;97.05
70314;BME280;57725;47.526;18.986;2023-02-17T10:56:19;100561.38;;;3.88;96.72
70314;BME280;57725;47.526;18.986;2023-02-17T10:59:40;100562.19;;;3.93;96.81
70314;BME280;57725;47.526;18.986;2023-02-17T11:01:43;100565.63;;;3.93;96.97
70314;BME280;57725;47.526;18.986;2023-02-17T11:04:10;100564.78;;;3.94;97.16
70314;BME280;57725;47.526;18.986;2023-02-17T11:06:41;100556.16;;;3.94;97.14
70314;BME280;57725;47.526;18.986;2023-02-17T11:09:28;100558.72;;;3.97;97.11
70314;BME280;57725;47.526;18.986;2023-02-17T11:12:02;100558.72;;;3.98;97.27
70314;BME280;57725;47.526;18.986;2023-02-17T11:14:34;100552.69;;;3.99;97.60
70314;BME280;57725;47.526;18.986;2023-02-17T11:19:38;100543.19;;;4.02;97.52
70314;BME280;57725;47.526;18.986;2023-02-17T11:22:25;100537.16;;;4.03;97.34
70314;BME280;57725;47.526;18.986;2023-02-17T11:24:58;100535.44;;;4.03;97.50
70314;BME280;57725;47.526;18.986;2023-02-17T11:27:29;100538.00;;;4.03;97.20
70314;BME280;57725;47.526;18.986;2023-02-17T11:30:06;100529.34;;;4.06;97.00
70314;BME280;57725;47.526;18.986;2023-02-17T11:32:35;100521.59;;;4.07;97.23
70314;BME280;57725;47.526;18.986;2023-02-17T11:35:03;100516.41;;;4.07;97.59
70314;BME280;57725;47.526;18.986;2023-02-17T11:37:30;100513.81;;;4.09;97.48
70314;BME280;57725;47.526;18.986;2023-02-17T11:39:57;100514.69;;;4.09;97.58
70314;BME280;57725;47.526;18.986;2023-02-17T11:42:25;100513.81;;;4.10;96.98
70314;BME280;57725;47.526;18.986;2023-02-17T11:44:52;100518.13;;;4.11;97.29
70314;BME280;57725;47.526;18.986;2023-02-17T11:50:31;100512.06;;;4.12;97.24
70314;BME280;57725;47.526;18.986;2023-02-17T12:09:33;100498.22;;;4.21;97.55
70314;BME280;57725;47.526;18.986;2023-02-17T12:15:33;100493.88;;;4.21;97.44
70314;BME280;57725;47.526;18.986;2023-02-17T12:18:48;100478.34;;;4.23;97.80
70314;BME280;57725;47.526;18.986;2023-02-17T12:26:48;100459.38;;;4.25;97.92
70314;BME280;57725;47.526;18.986;2023-02-17T12:32:49;100465.41;;;4.26;97.11
70314;BME280;57725;47.526;18.986;2023-02-17T12:35:21;100467.09;;;4.28;97.49
70314;BME280;57725;47.526;18.986;2023-02-17T12:37:54;100463.66;;;4.26;97.42
70314;BME280;57725;47.526;18.986;2023-02-17T12:41:02;100455.00;;;4.30;97.43
70314;BME280;57725;47.526;18.986;2023-02-17T12:46:03;100461.88;;;4.33;97.15
70314;BME280;57725;47.526;18.986;2023-02-17T12:56:21;100467.03;;;4.38;97.85
70314;BME280;57725;47.526;18.986;2023-02-17T12:58:51;100458.41;;;4.35;97.99
70314;BME280;57725;47.526;18.986;2023-02-17T13:01:19;100460.09;;;4.40;97.80
70314;BME280;57725;47.526;18.986;2023-02-17T13:03:48;100453.25;;;4.35;97.78
70314;BME280;57725;47.526;18.986;2023-02-17T13:06:35;100452.31;;;4.43;97.25
70314;BME280;57725;47.526;18.986;2023-02-17T13:11:49;100459.19;;;4.45;97.57
70314;BME280;57725;47.526;18.986;2023-02-17T13:14:37;100466.09;;;4.46;97.31
70314;BME280;57725;47.526;18.986;2023-02-17T13:17:03;100465.22;;;4.47;97.33
70314;BME280;57725;47.526;18.986;2023-02-17T13:19:32;100461.78;;;4.47;97.79
70314;BME280;57725;47.526;18.986;2023-02-17T13:22:00;100460.03;;;4.49;97.81
70314;BME280;57725;47.526;18.986;2023-02-17T13:24:38;100466.06;;;4.49;97.29
70314;BME280;57725;47.526;18.986;2023-02-17T13:30:02;100467.75;;;4.52;97.09
70314;BME280;57725;47.526;18.986;2023-02-17T13:32:31;100458.25;;;4.52;97.65
70314;BME280;57725;47.526;18.986;2023-02-17T13:35:16;100459.97;;;4.53;97.51
70314;BME280;57725;47.526;18.986;2023-02-17T13:37:51;100453.06;;;4.55;97.73
70314;BME280;57725;47.526;18.986;2023-02-17T13:43:13;100440.97;;;4.56;97.41
70314;BME280;57725;47.526;18.986;2023-02-17T13:45:48;100444.41;;;4.58;97.09
70314;BME280;57725;47.526;18.986;2023-02-17T13:50:47;100430.59;;;4.59;97.05
70314;BME280;57725;47.526;18.986;2023-02-17T13:55:47;100430.53;;;4.62;96.92
70314;BME280;57725;47.526;18.986;2023-02-17T13:58:12;100416.72;;;4.63;97.25
70314;BME280;57725;47.526;18.986;2023-02-17T14:00:41;100415.84;;;4.65;96.89
70314;BME280;57725;47.526;18.986;2023-02-17T14:05:55;100412.38;;;4.66;96.91
70314;BME280;57725;47.526;18.986;2023-02-17T14:11:19;100416.66;;;4.69;96.50
70314;BME280;57725;47.526;18.986;2023-02-17T14:13:49;100409.75;;;4.69;96.72
70314;BME280;57725;47.526;18.986;2023-02-17T14:16:28;100408.00;;;4.71;96.88
70314;BME280;57725;47.526;18.986;2023-02-17T14:19:20;100411.41;;;4.73;96.71
70314;BME280;57725;47.526;18.986;2023-02-17T14:22:02;100406.25;;;4.73;96.50
70314;BME280;57725;47.526;18.986;2023-02-17T14:24:34;100401.06;;;4.75;96.55
70314;BME280;57725;47.526;18.986;2023-02-17T14:27:08;100398.47;;;4.75;97.09
70314;BME280;57725;47.526;18.986;2023-02-17T14:29:44;100386.38;;;4.76;96.47
70314;BME280;57725;47.526;18.986;2023-02-17T14:32:30;100382.91;;;4.77;96.65
70314;BME280;57725;47.526;18.986;2023-02-17T14:35:18;100395.84;;;4.78;96.88
70314;BME280;57725;47.526;18.986;2023-02-17T14:37:44;100399.28;;;4.79;97.28
70314;BME280;57725;47.526;18.986;2023-02-17T14:40:27;100400.16;;;4.79;96.87
70314;BME280;57725;47.526;18.986;2023-02-17T14:42:53;100398.41;;;4.81;97.02
70314;BME280;57725;47.526;18.986;2023-02-17T14:45:18;100398.41;;;4.80;97.17
70314;BME280;57725;47.526;18.986;2023-02-17T14:47:44;100397.53;;;4.84;97.45
70314;BME280;57725;47.526;18.986;2023-02-17T14:50:11;100397.53;;;4.84;97.12
70314;BME280;57725;47.526;18.986;2023-02-17T14:52:44;100399.22;;;4.85;97.15